Portada
METAR-TAF:

METAR-TAF

Aeroports :

Aeroport Internacional Elefthérios Venizelos

Atenes, Grècia

latitud: 37-56N, longitud: 023-56E, altitud: 94 m

Observació

L'informe es va fer fa 22 minuts, a les 02:20 UTC
Vent calma
Temperatura 10°C
Humitat 82%
Pressió 1018 hPa
Visibilitat 10 km o més
sense núvols per sota de 1500 mi sense presència de cumulonimbus.

METAR: LGAV 230220Z 00000KT CAVOK 10/07 Q1018 NOSIG

Hora: 05:42 (02:42 UTC)

Pronòstic

L'informe es va fer fa 3 hores i 42 minuts, a les 23:00 UTC
Pronòstic vàlid del 23 a les 00 UTC al 23 a les 24 UTC
Vent 5 kt amb direcció variable
Visibilitat 10 km o més
Escasses núvols a una alçada de 2000 ft
Evolucionant progressivament
l' 23 a les 06 UTC al 23 a les 08 UTC
Vent 10 kt del Sud/Sud-Oest
Temporalment
l' 23 a les 10 UTC al 23 a les 16 UTC
Vent 16 kt del Sud/Sud-Oest

TAF: LGAV 222300Z 2300/2324 VRB05KT 9999 FEW020 BECMG 2306/2308 20010KT TEMPO 2310/2316 20016KT

Observacions i pronòstics meteorològics de més de 4000 aeroports (METAR i TAF).

Les estacions disponibles són els punts grocs i vermells al mapa.

Posi el ratolí al punt desitjat per veure el nom de l'estació.

Feu clic per veure les observacions i els pronòstics meteorològics.

Per canviar el mapa: feu clic els botons verds amb una creu de color negre per apropar; al botó verd amb un guió per allunyar la imatge; o en les fletxes verdes per a mapes adjacents.


METAR-TAF: